Redway, California
Current Conditions -  °F | °C
As of 4:15 PM on Sunday 25 Jan 2015 (Local Time) from KFOT Reporting Station
Clear Clear  
Wind Chill: 63°   Ceiling: Unl
Heat Index: 63°   Visibility: 10mi
Dew Point: 48°   Wind: 8mph
Humidity: 59%   Direction: 320°NW
Pressure: 30.02"   Gusts: NA
Location:  40.12°N, 123.82°W
Report Text: KFOT 260015Z AUTO 32007KT 10SM CLR 17/09 A3002 RMK AO1
Loading
Personal Weather Stations






























Interactive Weather Map New forecast layout! Learn more

10-Day Weather Forecast

Advertisements
Track Severe Weather on mobile